Time;durP1;ratioP1;P1;durP2;ratioP2;P2;SDS_P1;SDS_P2;PMS_P1;PMS_P2;Temp;Humidity;BMP_temperature;BMP_pressure;BME280_temperature;BME280_humidity;BME280_pressure;Samples;Min_cycle;Max_cycle;Signal;HPM_P1;HPM_P2
2023/12/31 00:01:33;;;;;;;;;3.00;3.00;;;;;21.31;52.35;100701.76;111449;1253;21330;-30
2023/12/31 00:04:00;;;;;;;;;3.00;3.00;;;;;21.32;52.17;100705.84;111413;1254;21164;-30
2023/12/31 00:06:28;;;;;;;;;2.00;2.00;;;;;21.30;52.08;100709.48;111350;1254;19675;-30
2023/12/31 00:08:55;;;;;;;;;2.00;2.00;;;;;21.29;52.15;100706.46;111470;1268;18019;-30
2023/12/31 00:11:22;;;;;;;;;2.33;2.33;;;;;21.30;52.18;100702.25;111387;1268;19539;-30
2023/12/31 00:13:50;;;;;;;;;1.00;1.00;;;;;21.31;52.16;100700.48;111534;1253;18580;-30
2023/12/31 00:16:17;;;;;;;;;3.00;3.00;;;;;21.27;52.09;100699.36;111244;1268;17774;-31
2023/12/31 00:18:44;;;;;;;;;1.00;1.00;;;;;21.27;52.22;100701.44;111607;1253;19416;-30
2023/12/31 00:21:11;;;;;;;;;3.00;3.00;;;;;21.27;52.31;100700.51;111288;1268;19458;-30
2023/12/31 00:23:39;;;;;;;;;3.00;3.00;;;;;21.28;52.20;100705.95;111594;1260;20017;-30
2023/12/31 00:26:06;;;;;;;;;1.00;1.00;;;;;21.26;52.04;100710.26;111359;1253;22294;-30
2023/12/31 00:28:33;;;;;;;;;3.00;3.00;;;;;21.25;52.00;100708.13;111309;1261;19500;-30
2023/12/31 00:31:01;;;;;;;;;3.50;2.00;;;;;21.25;52.01;100705.30;111372;1254;21400;-30
2023/12/31 00:33:28;;;;;;;;;2.00;1.00;;;;;21.24;52.18;100709.23;111289;1268;19249;-30
2023/12/31 00:35:55;;;;;;;;;1.00;1.00;;;;;21.24;52.12;100715.43;111449;1268;18672;-30
2023/12/31 00:38:23;;;;;;;;;1.00;1.00;;;;;21.24;52.16;100716.04;111229;1254;20033;-30
2023/12/31 00:40:50;;;;;;;;;1.00;1.00;;;;;21.24;52.04;100716.48;111516;1260;20826;-30
2023/12/31 00:43:17;;;;;;;;;1.00;1.00;;;;;21.24;52.21;100713.64;111285;1253;18186;-30
2023/12/31 00:45:45;;;;;;;;;1.00;1.00;;;;;21.23;51.88;100711.95;111607;1268;19985;-29
2023/12/31 00:48:12;;;;;;;;;3.00;3.00;;;;;21.24;51.80;100711.30;111369;1253;20759;-29
2023/12/31 00:50:39;;;;;;;;;3.00;3.00;;;;;21.23;51.70;100708.19;111647;1268;18800;-29
2023/12/31 00:53:07;;;;;;;;;1.00;1.00;;;;;21.23;51.98;100709.55;111383;1268;19873;-29
2023/12/31 00:55:38;;;;;;;;;3.00;3.00;;;;;21.23;51.84;100710.15;111477;1254;22105;-29
2023/12/31 00:58:06;;;;;;;;;1.00;1.00;;;;;21.22;52.03;100711.41;111598;1253;19624;-29
2023/12/31 01:00:33;;;;;;;;;1.00;1.00;;;;;21.22;52.03;100705.39;111212;1263;20170;-30
2023/12/31 01:03:01;;;;;;;;;3.00;3.00;;;;;21.22;51.79;100707.59;111454;1268;20712;-30
2023/12/31 01:05:28;;;;;;;;;1.00;1.00;;;;;21.21;51.68;100706.21;111244;1253;19656;-29
2023/12/31 01:07:55;;;;;;;;;1.00;1.00;;;;;21.21;51.88;100716.08;111515;1260;20085;-29
2023/12/31 01:10:24;;;;;;;;;3.00;3.00;;;;;21.21;51.86;100715.63;111292;1254;22135;-30
2023/12/31 01:12:51;;;;;;;;;3.00;3.00;;;;;21.21;51.88;100717.64;111047;1253;406766;-30
2023/12/31 01:15:18;;;;;;;;;2.00;2.00;;;;;21.21;51.79;100719.98;111233;1269;19986;-29
2023/12/31 01:17:46;;;;;;;;;3.00;3.00;;;;;21.22;51.66;100722.56;111513;1254;20833;-29
2023/12/31 01:20:14;;;;;;;;;3.00;3.00;;;;;21.22;51.87;100727.41;111297;1268;19596;-30
2023/12/31 01:22:41;;;;;;;;;1.00;1.00;;;;;21.21;51.74;100725.54;111479;1253;20052;-30
2023/12/31 01:25:08;;;;;;;;;3.00;3.00;;;;;21.23;51.38;100723.45;111272;1260;19358;-30
2023/12/31 01:27:35;;;;;;;;;1.00;1.00;;;;;21.20;51.42;100723.91;111487;1263;19739;-30
2023/12/31 01:30:03;;;;;;;;;1.00;1.00;;;;;21.19;51.71;100725.70;111304;1268;18616;-31
2023/12/31 01:32:30;;;;;;;;;3.00;3.00;;;;;21.19;51.68;100729.80;111250;1253;19395;-30
2023/12/31 01:34:58;;;;;;;;;1.00;1.00;;;;;21.18;51.81;100727.66;111379;1268;19770;-30
2023/12/31 01:37:26;;;;;;;;;1.00;1.00;;;;;21.18;51.34;100725.48;111312;1260;19895;-30
2023/12/31 01:39:53;;;;;;;;;3.00;3.00;;;;;21.17;51.47;100725.98;111298;1253;19389;-30
2023/12/31 01:42:21;;;;;;;;;1.00;1.00;;;;;21.17;51.74;100723.52;111275;1253;19700;-30
2023/12/31 01:44:49;;;;;;;;;2.00;2.00;;;;;21.17;51.34;100725.00;111230;1269;18631;-30
2023/12/31 01:47:17;;;;;;;;;2.00;2.00;;;;;21.17;51.43;100721.08;111241;1253;20726;-30
2023/12/31 01:49:45;;;;;;;;;3.00;3.00;;;;;21.17;51.76;100721.56;111466;1253;19617;-30
2023/12/31 01:52:12;;;;;;;;;3.00;3.00;;;;;21.18;51.56;100725.16;111469;1268;20096;-30
2023/12/31 01:54:39;;;;;;;;;1.00;1.00;;;;;21.17;51.40;100723.31;111452;1253;19518;-30
2023/12/31 01:57:06;;;;;;;;;3.00;3.00;;;;;21.16;51.71;100728.33;111259;1268;18249;-30
2023/12/31 01:59:34;;;;;;;;;1.67;1.67;;;;;21.15;51.36;100728.10;111237;1253;20202;-30
2023/12/31 02:02:01;;;;;;;;;3.00;3.00;;;;;21.15;51.39;100730.11;111342;1268;19404;-30
2023/12/31 02:04:29;;;;;;;;;3.00;3.00;;;;;21.15;51.62;100728.70;111231;1262;19526;-30
2023/12/31 02:06:56;;;;;;;;;3.00;3.00;;;;;21.15;51.50;100726.10;111346;1260;21181;-30
2023/12/31 02:09:23;;;;;;;;;1.00;1.00;;;;;21.15;51.38;100725.77;111256;1260;21023;-30
2023/12/31 02:11:51;;;;;;;;;1.00;1.00;;;;;21.15;51.51;100726.91;111430;1268;18196;-30
2023/12/31 02:14:18;;;;;;;;;2.00;2.00;;;;;21.14;51.39;100726.41;111304;1268;21056;-30
2023/12/31 02:16:45;;;;;;;;;3.00;3.00;;;;;21.15;51.40;100726.52;111516;1254;20804;-30
2023/12/31 02:19:12;;;;;;;;;3.00;3.00;;;;;21.14;51.14;100721.95;111240;1268;18277;-30
2023/12/31 02:21:40;;;;;;;;;3.00;2.33;;;;;21.14;51.44;100725.55;111566;1253;19668;-30
2023/12/31 02:24:07;;;;;;;;;4.00;3.00;;;;;21.14;51.46;100728.61;111330;1268;20763;-30
2023/12/31 02:26:34;;;;;;;;;2.00;1.00;;;;;21.14;51.15;100730.89;111248;1253;20771;-30
2023/12/31 02:29:02;;;;;;;;;1.00;1.00;;;;;21.14;51.43;100732.95;111357;1254;20138;-30
2023/12/31 02:31:29;;;;;;;;;1.00;1.00;;;;;21.14;51.36;100734.54;111284;1253;20886;-30
2023/12/31 02:33:56;;;;;;;;;1.00;1.00;;;;;21.13;51.06;100731.70;111380;1260;19786;-30
2023/12/31 02:36:24;;;;;;;;;2.00;2.00;;;;;21.13;51.19;100733.39;111355;1256;20057;-30
2023/12/31 02:38:51;;;;;;;;;4.00;4.00;;;;;21.12;51.12;100734.42;111420;1252;22100;-30
2023/12/31 02:41:18;;;;;;;;;2.00;2.00;;;;;21.12;51.39;100736.88;111246;1268;18138;-31
2023/12/31 02:43:46;;;;;;;;;3.00;3.00;;;;;21.12;51.26;100738.63;111564;1253;20128;-30
2023/12/31 02:46:13;;;;;;;;;1.00;1.00;;;;;21.12;51.16;100737.20;111339;1253;20843;-30
2023/12/31 02:48:40;;;;;;;;;3.00;3.00;;;;;21.13;51.45;100739.55;111525;1268;18419;-30
2023/12/31 02:51:07;;;;;;;;;3.00;3.00;;;;;21.14;51.38;100738.45;111385;1268;18706;-30
2023/12/31 02:53:35;;;;;;;;;3.00;3.00;;;;;21.14;51.09;100730.89;111282;1254;20817;-30
2023/12/31 02:56:02;;;;;;;;;3.00;3.00;;;;;21.14;50.99;100733.38;111464;1268;18220;-30
2023/12/31 02:58:29;;;;;;;;;1.00;1.00;;;;;21.17;51.01;100730.89;111274;1269;18652;-30
2023/12/31 03:00:57;;;;;;;;;1.00;1.00;;;;;21.15;50.99;100737.70;111437;1260;19440;-30
2023/12/31 03:03:24;;;;;;;;;3.00;3.00;;;;;21.13;50.95;100736.83;111315;1253;19658;-30
2023/12/31 03:05:51;;;;;;;;;1.00;1.00;;;;;21.12;51.13;100736.61;111431;1268;20149;-30
2023/12/31 03:08:19;;;;;;;;;3.00;3.00;;;;;21.11;51.21;100730.56;111314;1268;19507;-30
2023/12/31 03:10:46;;;;;;;;;3.00;3.00;;;;;21.13;50.69;100730.56;111471;1268;18200;-30
2023/12/31 03:13:13;;;;;;;;;1.00;1.00;;;;;21.14;50.91;100726.64;111283;1268;18681;-30
2023/12/31 03:15:40;;;;;;;;;3.00;3.00;;;;;21.13;51.04;100733.45;111401;1268;19366;-30
2023/12/31 03:18:08;;;;;;;;;3.00;3.00;;;;;21.11;51.17;100735.84;111347;1268;18773;-31
2023/12/31 03:20:35;;;;;;;;;1.00;1.00;;;;;21.12;50.98;100737.38;111250;1253;20113;-31
2023/12/31 03:23:02;;;;;;;;;2.00;2.00;;;;;21.11;51.01;100736.66;111403;1254;20864;-31
2023/12/31 03:25:30;;;;;;;;;3.00;3.00;;;;;21.10;50.70;100731.21;111351;1268;18519;-31
2023/12/31 03:27:57;;;;;;;;;1.00;1.00;;;;;21.10;51.00;100733.77;111456;1269;18540;-31
2023/12/31 03:30:24;;;;;;;;;3.00;3.00;;;;;21.12;50.94;100736.83;111428;1268;20812;-31
2023/12/31 03:32:52;;;;;;;;;1.00;1.00;;;;;21.12;50.87;100736.06;111388;1268;19600;-31
2023/12/31 03:35:19;;;;;;;;;1.00;1.00;;;;;21.11;50.80;100740.80;111467;1260;18795;-31
2023/12/31 03:37:47;;;;;;;;;1.00;1.00;;;;;21.10;50.88;100743.46;111264;1263;20757;-31
2023/12/31 03:40:15;;;;;;;;;3.00;3.00;;;;;21.10;51.03;100744.50;111402;1268;18696;-31
2023/12/31 03:42:42;;;;;;;;;3.00;3.00;;;;;21.09;50.81;100744.67;111435;1260;20468;-31
2023/12/31 03:45:09;;;;;;;;;1.00;1.00;;;;;21.10;50.79;100742.33;111508;1254;20817;-30
2023/12/31 03:47:37;;;;;;;;;2.00;1.00;;;;;21.10;50.82;100742.98;111246;1254;20966;-31
2023/12/31 03:50:04;;;;;;;;;1.00;1.00;;;;;21.10;50.78;100742.54;111460;1268;18664;-31
2023/12/31 03:52:32;;;;;;;;;3.00;3.00;;;;;21.10;50.79;100743.20;111259;1253;20836;-31
2023/12/31 03:54:59;;;;;;;;;3.00;3.00;;;;;21.09;50.91;100743.85;111487;1268;18252;-31
2023/12/31 03:57:27;;;;;;;;;1.00;1.00;;;;;21.09;50.73;100740.26;111255;1260;20010;-31
2023/12/31 03:59:54;;;;;;;;;3.00;3.00;;;;;21.10;50.89;100739.92;111477;1268;19416;-31
2023/12/31 04:02:21;;;;;;;;;3.00;3.00;;;;;21.10;50.90;100741.34;111263;1254;19632;-31
2023/12/31 04:04:49;;;;;;;;;3.00;3.00;;;;;21.11;50.83;100743.04;111266;1254;20133;-31
2023/12/31 04:07:16;;;;;;;;;3.00;3.00;;;;;21.13;50.75;100746.85;111296;1269;20752;-31
2023/12/31 04:09:43;;;;;;;;;3.00;3.00;;;;;21.12;50.52;100744.67;111290;1253;19451;-31
2023/12/31 04:12:11;;;;;;;;;3.00;3.00;;;;;21.10;50.76;100745.59;111302;1253;20094;-31
2023/12/31 04:14:38;;;;;;;;;3.00;3.00;;;;;21.09;50.76;100739.33;111293;1253;20363;-31
2023/12/31 04:17:05;;;;;;;;;1.00;1.00;;;;;21.12;50.72;100738.35;111396;1260;19635;-31
2023/12/31 04:19:33;;;;;;;;;3.00;3.00;;;;;21.11;50.46;100740.58;111281;1253;21238;-31
2023/12/31 04:22:00;;;;;;;;;1.00;1.00;;;;;21.10;50.65;100740.30;111359;1260;22029;-31
2023/12/31 04:24:28;;;;;;;;;1.00;1.00;;;;;21.08;50.52;100739.83;111323;1253;19608;-31
2023/12/31 04:26:56;;;;;;;;;1.00;1.00;;;;;21.09;50.66;100734.42;111448;1253;21266;-31
2023/12/31 04:29:23;;;;;;;;;3.00;3.00;;;;;21.10;50.60;100734.59;111246;1253;20859;-31
2023/12/31 04:31:51;;;;;;;;;1.00;1.00;;;;;21.11;50.62;100735.41;111336;1253;20798;-31
2023/12/31 04:34:18;;;;;;;;;1.00;1.00;;;;;21.14;50.59;100731.98;111320;1253;18686;-31
2023/12/31 04:36:45;;;;;;;;;3.00;3.00;;;;;21.12;50.62;100727.95;111425;1268;19549;-31
2023/12/31 04:39:13;;;;;;;;;1.00;1.00;;;;;21.10;50.27;100730.07;111399;1268;18255;-29
2023/12/31 04:41:40;;;;;;;;;3.00;3.00;;;;;21.10;50.56;100732.46;111502;1253;19985;-29
2023/12/31 04:44:07;;;;;;;;;3.00;3.00;;;;;21.14;50.41;100732.68;111427;1253;21323;-30
2023/12/31 04:46:34;;;;;;;;;3.00;3.00;;;;;21.14;50.28;100730.13;111447;1256;19683;-30
2023/12/31 04:49:02;;;;;;;;;3.00;3.00;;;;;21.13;50.41;100729.80;111219;1268;20092;-30
2023/12/31 04:51:29;;;;;;;;;1.00;1.00;;;;;21.11;50.50;100724.17;111287;1253;20796;-29
2023/12/31 04:53:56;;;;;;;;;2.00;2.00;;;;;21.11;50.41;100718.35;111292;1268;18179;-30
2023/12/31 04:56:24;;;;;;;;;3.00;3.00;;;;;21.10;50.39;100718.52;111297;1252;19942;-29
2023/12/31 04:58:51;;;;;;;;;5.00;1.00;;;;;21.12;50.29;100721.95;111373;1260;20935;-29
2023/12/31 05:01:18;;;;;;;;;3.00;3.00;;;;;21.11;50.25;100723.15;111277;1253;19531;-30
2023/12/31 05:03:46;;;;;;;;;3.00;3.00;;;;;21.11;50.27;100723.80;111437;1253;20094;-30
2023/12/31 05:06:13;;;;;;;;;3.00;3.00;;;;;21.12;50.33;100721.67;111324;1253;20712;-30
2023/12/31 05:08:40;;;;;;;;;2.00;2.00;;;;;21.10;50.28;100716.67;111246;1256;19615;-30
2023/12/31 05:11:08;;;;;;;;;1.00;1.00;;;;;21.11;50.32;100713.77;111355;1253;18711;-30
2023/12/31 05:13:35;;;;;;;;;3.00;3.00;;;;;21.11;50.27;100720.04;111347;1253;20828;-29
2023/12/31 05:16:02;;;;;;;;;3.00;3.00;;;;;21.10;50.29;100717.48;111244;1253;19682;-30
2023/12/31 05:18:30;;;;;;;;;1.00;1.00;;;;;21.10;50.10;100711.44;111402;1260;20102;-29
2023/12/31 05:20:57;;;;;;;;;3.00;3.00;;;;;21.09;50.21;100711.16;111255;1253;21902;-30
2023/12/31 05:23:24;;;;;;;;;3.00;3.00;;;;;21.09;50.11;100712.86;111461;1253;19630;-30
2023/12/31 05:25:51;;;;;;;;;3.00;3.00;;;;;21.11;50.17;100714.21;111320;1268;18619;-30
2023/12/31 05:28:19;;;;;;;;;3.00;3.00;;;;;21.12;50.22;100712.52;111428;1269;19286;-30
2023/12/31 05:30:46;;;;;;;;;3.00;3.00;;;;;21.10;50.08;100708.93;111287;1253;19695;-29
2023/12/31 05:33:13;;;;;;;;;2.00;2.00;;;;;21.12;49.95;100711.38;111122;1254;20064;-30
2023/12/31 05:35:41;;;;;;;;;3.00;3.00;;;;;21.10;50.14;100713.34;111169;1254;20933;-30
2023/12/31 05:38:08;;;;;;;;;3.50;3.00;;;;;21.10;50.18;100711.11;111096;1253;19597;-30
2023/12/31 05:40:35;;;;;;;;;3.00;3.00;;;;;21.12;50.09;100711.60;111323;1256;20170;-30
2023/12/31 05:43:03;;;;;;;;;3.00;3.00;;;;;21.13;50.05;100705.61;111111;1269;20035;-30
2023/12/31 05:45:30;;;;;;;;;3.00;3.00;;;;;21.12;50.16;100704.02;111396;1269;18217;-30
2023/12/31 05:47:57;;;;;;;;;1.00;1.00;;;;;21.12;50.08;100707.24;111159;1254;20041;-30
2023/12/31 05:50:25;;;;;;;;;3.00;3.00;;;;;21.13;49.89;100707.62;111466;1254;20799;-30
2023/12/31 05:52:52;;;;;;;;;3.00;3.00;;;;;21.11;50.10;100711.82;111062;1254;19566;-29
2023/12/31 05:55:19;;;;;;;;;3.00;3.00;;;;;21.10;49.97;100709.54;111460;1261;19989;-30
2023/12/31 05:57:47;;;;;;;;;2.00;2.00;;;;;21.07;50.15;100706.70;111151;1254;20758;-30
2023/12/31 06:00:14;;;;;;;;;3.00;3.00;;;;;21.06;49.92;100706.65;111584;1256;19680;-30
2023/12/31 06:02:41;;;;;;;;;3.00;3.00;;;;;21.08;49.82;100704.68;111229;1255;20269;-30
2023/12/31 06:05:09;;;;;;;;;2.33;2.33;;;;;21.08;49.88;100702.51;111154;1254;20776;-30
2023/12/31 06:07:36;;;;;;;;;3.00;3.00;;;;;21.06;50.53;100701.64;111300;1269;18535;-30
2023/12/31 06:10:04;;;;;;;;;3.50;3.00;;;;;21.04;50.49;100701.30;111068;1253;19008;-30
2023/12/31 06:12:32;;;;;;;;;4.00;4.00;;;;;21.07;50.32;100698.80;111281;1269;19403;-30
2023/12/31 06:15:00;;;;;;;;;4.00;4.00;;;;;21.05;50.39;100698.42;111552;1254;19754;-30
2023/12/31 06:17:28;;;;;;;;;3.00;3.00;;;;;21.04;50.20;100696.30;111143;1254;20065;-30
2023/12/31 06:19:55;;;;;;;;;4.00;3.00;;;;;21.03;50.28;100698.92;111468;1254;20819;-30
2023/12/31 06:22:23;;;;;;;;;2.00;2.00;;;;;21.03;50.37;100701.48;111190;1269;18905;-30
2023/12/31 06:24:50;;;;;;;;;1.00;1.00;;;;;21.03;50.23;100701.14;111550;1254;20057;-30
2023/12/31 06:27:17;;;;;;;;;3.00;2.00;;;;;21.03;50.31;100702.78;111323;1254;22411;-30
2023/12/31 06:29:44;;;;;;;;;3.00;3.00;;;;;21.03;50.01;100697.88;111594;1268;18637;-30
2023/12/31 06:32:12;;;;;;;;;3.50;3.00;;;;;21.03;50.02;100698.59;111310;1269;19949;-30
2023/12/31 06:34:39;;;;;;;;;3.00;3.00;;;;;21.04;49.98;100700.49;111218;1253;19388;-32
2023/12/31 06:37:06;;;;;;;;;3.00;3.00;;;;;21.03;50.02;100701.52;111419;1260;19750;-31
2023/12/31 06:39:34;;;;;;;;;3.00;3.00;;;;;21.03;50.00;100697.77;111222;1269;18608;-31
2023/12/31 06:42:01;;;;;;;;;4.00;4.00;;;;;21.02;49.93;100701.20;111488;1253;19201;-31
2023/12/31 06:44:29;;;;;;;;;3.50;3.50;;;;;21.02;49.91;100696.46;111275;1254;19680;-31
2023/12/31 06:46:56;;;;;;;;;4.00;3.00;;;;;21.02;49.71;100696.02;111448;1268;19977;-31
2023/12/31 06:49:23;;;;;;;;;3.00;3.00;;;;;21.03;49.80;100694.12;111252;1269;19533;-31
2023/12/31 06:51:51;;;;;;;;;3.00;3.00;;;;;21.02;49.76;100690.63;111517;1254;20654;-31
2023/12/31 06:54:18;;;;;;;;;3.00;3.00;;;;;21.02;49.72;100690.26;111307;1253;20208;-31
2023/12/31 06:56:45;;;;;;;;;3.00;3.00;;;;;21.02;49.69;100694.39;111423;1253;20802;-31
2023/12/31 06:59:13;;;;;;;;;1.00;1.00;;;;;21.02;49.74;100694.95;111369;1268;19465;-32
2023/12/31 07:01:40;;;;;;;;;4.00;4.00;;;;;21.02;49.89;100692.81;111298;1268;18586;-31
2023/12/31 07:04:07;;;;;;;;;4.00;4.00;;;;;21.01;49.75;100692.16;111430;1253;20758;-31
2023/12/31 07:06:35;;;;;;;;;3.00;3.00;;;;;21.02;49.83;100693.91;111359;1253;20822;-31
2023/12/31 07:09:02;;;;;;;;;3.00;3.00;;;;;21.03;49.86;100695.98;111434;1268;18529;-31
2023/12/31 07:11:29;;;;;;;;;3.00;3.00;;;;;21.03;49.95;100694.12;111329;1268;19357;-31
2023/12/31 07:13:57;;;;;;;;;6.00;4.00;;;;;21.01;49.88;100694.56;111435;1253;19657;-32
2023/12/31 07:16:24;;;;;;;;;1.00;1.00;;;;;21.02;49.78;100694.98;111254;1254;20264;-31
2023/12/31 07:18:51;;;;;;;;;4.00;4.00;;;;;21.02;49.72;100698.59;111369;1253;20774;-31
2023/12/31 07:21:19;;;;;;;;;4.00;3.00;;;;;21.03;49.92;100694.23;111246;1253;19654;-31
2023/12/31 07:23:46;;;;;;;;;3.00;3.00;;;;;21.03;49.86;100693.20;111279;1268;18702;-31
2023/12/31 07:26:13;;;;;;;;;3.00;3.00;;;;;21.04;49.86;100693.91;111287;1268;20762;-31
2023/12/31 07:28:41;;;;;;;;;3.00;3.00;;;;;21.08;49.82;100688.95;111538;1254;19708;-31
2023/12/31 07:31:08;;;;;;;;;1.00;1.00;;;;;21.11;49.87;100691.66;111239;1253;20125;-32
2023/12/31 07:33:35;;;;;;;;;4.00;3.00;;;;;21.16;50.01;100689.09;111552;1268;20468;-30
2023/12/31 07:36:03;;;;;;;;;4.00;3.00;;;;;21.18;49.89;100692.54;111310;1268;18252;-31
2023/12/31 07:38:30;;;;;;;;;7.00;6.00;;;;;21.18;50.38;100692.96;111539;1268;18641;-32
2023/12/31 07:40:57;;;;;;;;;3.00;3.00;;;;;21.17;50.47;100697.33;111361;1268;19374;-31
2023/12/31 07:43:25;;;;;;;;;4.00;3.00;;;;;21.18;50.68;100701.90;111266;1254;19752;-31
2023/12/31 07:45:52;;;;;;;;;3.00;3.00;;;;;21.20;50.94;100702.84;111428;1254;20172;-31
2023/12/31 07:48:20;;;;;;;;;4.00;4.00;;;;;21.20;51.47;100701.47;111366;1262;19450;-31
2023/12/31 07:50:48;;;;;;;;;4.00;4.00;;;;;21.20;51.72;100700.38;111387;1260;18242;-31
2023/12/31 07:53:15;;;;;;;;;4.00;3.00;;;;;21.17;51.56;100700.65;111335;1268;19943;-32
2023/12/31 07:55:43;;;;;;;;;4.00;4.00;;;;;21.16;51.77;100700.44;111422;1253;21969;-32
2023/12/31 07:58:10;;;;;;;;;4.00;4.00;;;;;21.16;51.83;100700.76;111516;1253;18147;-32
2023/12/31 08:00:38;;;;;;;;;4.00;4.00;;;;;21.18;51.61;100704.14;111352;1268;18685;-31
2023/12/31 08:03:05;;;;;;;;;6.00;5.00;;;;;21.19;51.30;100707.73;111285;1253;20996;-31
2023/12/31 08:05:33;;;;;;;;;6.00;6.00;;;;;21.21;51.31;100704.64;111425;1268;18187;-31
2023/12/31 08:08:01;;;;;;;;;6.00;6.00;;;;;21.20;51.13;100703.43;111475;1258;20057;-31
2023/12/31 08:10:28;;;;;;;;;6.00;6.00;;;;;21.21;51.21;100693.19;111314;1253;20837;-31
2023/12/31 08:12:55;;;;;;;;;10.00;9.00;;;;;21.22;51.07;100697.07;111253;1253;19673;-31
2023/12/31 08:15:22;;;;;;;;;6.00;5.00;;;;;21.22;50.98;100698.59;111418;1253;20160;-31
2023/12/31 08:17:50;;;;;;;;;6.00;4.00;;;;;21.20;51.31;100706.48;111252;1253;20851;-31
2023/12/31 08:20:17;;;;;;;;;7.00;6.00;;;;;21.14;51.34;100704.46;111437;1253;19634;-31
2023/12/31 08:22:44;;;;;;;;;6.00;6.00;;;;;21.13;51.25;100703.48;111332;1260;20114;-31
2023/12/31 08:25:12;;;;;;;;;7.00;6.33;;;;;21.10;51.07;100705.29;111448;1268;20735;-31
2023/12/31 08:27:39;;;;;;;;;6.00;6.00;;;;;21.07;51.43;100705.77;111413;1268;18262;-31
2023/12/31 08:30:07;;;;;;;;;9.00;9.00;;;;;21.06;51.08;100708.02;111385;1268;18799;-31
2023/12/31 08:32:34;;;;;;;;;9.00;9.00;;;;;21.08;50.93;100710.73;111440;1253;20928;-31
2023/12/31 08:35:01;;;;;;;;;7.00;7.00;;;;;21.14;50.66;100710.63;111406;1268;20663;-31
2023/12/31 08:37:29;;;;;;;;;9.00;7.00;;;;;21.18;50.44;100707.08;111246;1268;20118;-31
2023/12/31 08:39:57;;;;;;;;;12.00;10.00;;;;;21.21;50.28;100708.28;111303;1253;20816;-31
2023/12/31 08:42:25;;;;;;;;;7.00;6.00;;;;;21.21;50.29;100703.59;111385;1260;19815;-31
2023/12/31 08:44:52;;;;;;;;;9.00;9.00;;;;;21.22;50.12;100706.83;111471;1254;20036;-31
2023/12/31 08:47:19;;;;;;;;;10.00;9.00;;;;;21.22;50.10;100702.79;111462;1260;22126;-31
2023/12/31 08:49:47;;;;;;;;;9.00;9.00;;;;;21.23;50.14;100709.45;111428;1260;19499;-31
2023/12/31 08:52:14;;;;;;;;;10.00;7.00;;;;;21.19;50.26;100708.70;111313;1256;20159;-31
2023/12/31 08:54:41;;;;;;;;;9.00;9.00;;;;;21.22;50.41;100705.40;111362;1253;21723;-31
2023/12/31 08:57:09;;;;;;;;;9.00;9.00;;;;;21.22;50.70;100707.47;111269;1268;18629;-31
2023/12/31 08:59:36;;;;;;;;;10.00;7.00;;;;;21.23;50.89;100703.84;111302;1253;20154;-31
2023/12/31 09:02:03;;;;;;;;;9.00;9.00;;;;;21.26;50.97;100705.02;111318;1255;20931;-30
2023/12/31 09:04:34;;;;;;;;;8.00;6.50;;;;;21.28;51.19;100707.96;111316;1253;21249;-32
2023/12/31 09:07:01;;;;;;;;;7.00;7.00;;;;;21.28;51.08;100706.00;111284;1269;20556;-31
2023/12/31 09:09:30;;;;;;;;;7.00;6.00;;;;;21.24;51.32;100708.30;111253;1268;19474;-31
2023/12/31 09:11:57;;;;;;;;;13.00;9.00;;;;;21.24;51.09;100708.89;111419;1253;19584;-31
2023/12/31 09:14:25;;;;;;;;;10.00;9.00;;;;;21.27;51.04;100705.33;111420;1262;19965;-31
2023/12/31 09:16:52;;;;;;;;;6.00;6.00;;;;;21.27;51.36;100707.42;111418;1268;19755;-31
2023/12/31 09:19:20;;;;;;;;;7.00;6.00;;;;;21.31;51.51;100706.22;111397;1268;18613;-31
2023/12/31 09:21:47;;;;;;;;;11.00;9.00;;;;;21.33;51.71;100702.89;111472;1268;18648;-31
2023/12/31 09:24:14;;;;;;;;;9.00;7.00;;;;;21.32;51.70;100700.17;111486;1254;19453;-31
2023/12/31 09:26:42;;;;;;;;;7.00;6.50;;;;;21.35;51.63;100692.27;111274;1254;20020;-31
2023/12/31 09:29:09;;;;;;;;;6.00;6.00;;;;;21.34;51.73;100694.17;111479;1262;19917;-31
2023/12/31 09:31:37;;;;;;;;;8.33;7.00;;;;;21.36;51.70;100688.94;111246;1253;22078;-31
2023/12/31 09:34:04;;;;;;;;;8.33;8.33;;;;;21.38;51.61;100689.91;111551;1253;19670;-31
2023/12/31 09:36:32;;;;;;;;;6.00;6.00;;;;;21.35;51.86;100690.08;111243;1253;19990;-31
2023/12/31 09:38:59;;;;;;;;;9.00;9.00;;;;;21.35;51.88;100682.73;111439;1268;19406;-31
2023/12/31 09:41:26;;;;;;;;;8.00;7.00;;;;;21.37;52.15;100675.20;111296;1256;19651;-31
2023/12/31 09:43:54;;;;;;;;;9.00;6.00;;;;;21.36;52.14;100669.38;111235;1268;18775;-31
2023/12/31 09:46:22;;;;;;;;;9.50;8.00;;;;;21.34;52.66;100663.16;111245;1254;20781;-31
2023/12/31 09:48:49;;;;;;;;;7.00;7.00;;;;;21.36;52.87;100658.15;111602;1253;20422;-30
2023/12/31 09:51:16;;;;;;;;;19.00;16.00;;;;;21.32;51.98;100657.00;111345;1253;20057;-31
2023/12/31 09:53:44;;;;;;;;;33.50;28.00;;;;;21.02;49.92;100660.35;111340;1253;20852;-31
2023/12/31 09:56:11;;;;;;;;;29.00;27.50;;;;;20.76;46.50;100655.65;111368;1253;20074;-31
2023/12/31 09:58:38;;;;;;;;;32.50;29.50;;;;;20.52;44.49;100650.09;111282;1260;20125;-31
2023/12/31 10:01:06;;;;;;;;;35.50;32.50;;;;;20.28;42.62;100643.84;111448;1260;19394;-31
2023/12/31 10:03:33;;;;;;;;;43.50;38.00;;;;;20.13;41.43;100642.70;111231;1254;21424;-31
2023/12/31 10:06:00;;;;;;;;;35.00;34.00;;;;;20.06;40.30;100644.05;111427;1268;18735;-30
2023/12/31 10:08:28;;;;;;;;;32.00;29.00;;;;;20.12;39.75;100637.64;111241;1253;21815;-31
2023/12/31 10:10:55;;;;;;;;;33.00;29.00;;;;;20.32;41.21;100636.98;111520;1268;18748;-30
2023/12/31 10:13:22;;;;;;;;;28.00;24.00;;;;;20.51;41.47;100634.52;111255;1260;20097;-31
2023/12/31 10:15:50;;;;;;;;;29.00;27.00;;;;;20.64;42.09;100636.45;111601;1253;20862;-30
2023/12/31 10:18:17;;;;;;;;;26.67;25.67;;;;;20.74;42.68;100629.91;111246;1269;19960;-30
2023/12/31 10:20:44;;;;;;;;;27.00;25.00;;;;;20.82;42.89;100623.95;111624;1253;20244;-30
2023/12/31 10:23:12;;;;;;;;;21.00;20.00;;;;;20.89;42.96;100615.16;111291;1253;20710;-30
2023/12/31 10:25:39;;;;;;;;;25.00;21.00;;;;;20.89;43.35;100618.38;111320;1268;18644;-30
2023/12/31 10:28:06;;;;;;;;;19.00;19.00;;;;;20.88;43.07;100619.04;111366;1269;20413;-30
2023/12/31 10:30:34;;;;;;;;;22.33;19.33;;;;;20.96;44.02;100615.21;111217;1253;21970;-30
2023/12/31 10:33:01;;;;;;;;;18.00;15.00;;;;;21.02;44.59;100615.80;111369;1253;20003;-30
2023/12/31 10:35:29;;;;;;;;;19.50;16.00;;;;;21.03;45.30;100619.73;111207;1254;20149;-30
2023/12/31 10:37:56;;;;;;;;;17.00;15.00;;;;;21.05;45.47;100618.58;111433;1252;21999;-30
2023/12/31 10:40:23;;;;;;;;;14.00;13.00;;;;;21.10;45.79;100617.58;111301;1253;20068;-31
2023/12/31 10:42:55;;;;;;;;;14.00;13.00;;;;;21.09;46.14;100618.45;111500;1253;20150;-30
2023/12/31 10:45:22;;;;;;;;;16.00;16.00;;;;;21.12;46.63;100618.45;111314;1253;22207;-31
2023/12/31 10:47:50;;;;;;;;;21.00;21.00;;;;;21.14;46.71;100609.90;111282;1269;18606;-30
2023/12/31 10:50:17;;;;;;;;;15.00;15.00;;;;;21.13;47.36;100612.40;111321;1253;21250;-30
2023/12/31 10:52:45;;;;;;;;;16.00;12.00;;;;;21.16;47.48;100608.69;111262;1253;20758;-30
2023/12/31 10:55:13;;;;;;;;;16.00;13.00;;;;;21.17;47.69;100606.23;111346;1253;20079;-30
2023/12/31 10:57:40;;;;;;;;;12.00;12.00;;;;;21.14;47.68;100604.50;111288;1252;21559;-30
2023/12/31 11:00:09;;;;;;;;;18.50;17.00;;;;;21.14;47.61;100598.95;111334;1253;20833;-31
2023/12/31 11:02:36;;;;;;;;;16.00;15.00;;;;;21.13;47.55;100594.48;111488;1253;20084;-30
2023/12/31 11:05:04;;;;;;;;;16.00;16.00;;;;;21.14;47.09;100592.95;111250;1253;20235;-30
2023/12/31 11:07:31;;;;;;;;;13.00;13.00;;;;;21.11;47.26;100589.36;111423;1254;20834;-31
2023/12/31 11:09:59;;;;;;;;;15.50;15.00;;;;;21.11;47.03;100589.97;111319;1260;19710;-30
2023/12/31 11:12:26;;;;;;;;;15.00;13.00;;;;;21.10;46.85;100584.24;111287;1268;20102;-30
2023/12/31 11:14:53;;;;;;;;;15.50;14.00;;;;;21.13;46.87;100579.12;111263;1253;22061;-30